createdAt,value
2022-09-12T00:02:21.057Z,16.0
2022-09-12T00:07:21.014Z,15.9
2022-09-12T00:12:21.002Z,15.7
2022-09-12T00:17:21.036Z,15.9
2022-09-12T00:22:20.999Z,16.0
2022-09-12T00:32:21.008Z,15.6
2022-09-12T00:37:21.547Z,15.9
2022-09-12T00:47:21.022Z,15.8
2022-09-12T00:52:21.017Z,15.7
2022-09-12T00:57:21.067Z,15.8
2022-09-12T01:02:21.036Z,15.6
2022-09-12T01:07:21.031Z,15.8
2022-09-12T01:12:21.192Z,15.7
2022-09-12T01:17:21.035Z,15.6
2022-09-12T01:22:21.195Z,15.5
2022-09-12T01:27:21.031Z,15.7
2022-09-12T01:32:21.110Z,15.6
2022-09-12T02:02:21.091Z,15.5
2022-09-12T02:07:21.048Z,15.6
2022-09-12T02:12:21.059Z,15.3
2022-09-12T02:17:21.063Z,15.1
2022-09-12T02:22:21.048Z,15.4
2022-09-12T02:27:21.044Z,15.2
2022-09-12T02:32:21.046Z,14.9
2022-09-12T02:47:21.064Z,15.0
2022-09-12T02:52:21.068Z,15.1
2022-09-12T02:57:23.052Z,15.0
2022-09-12T03:02:21.124Z,15.1
2022-09-12T03:12:21.071Z,15.0
2022-09-12T03:17:21.073Z,14.8
2022-09-12T03:22:21.081Z,14.9
2022-09-12T03:27:21.079Z,15.0
2022-09-12T03:32:21.078Z,14.9
2022-09-12T03:37:21.110Z,14.8
2022-09-12T03:42:21.095Z,15.0
2022-09-12T03:47:21.095Z,14.9
2022-09-12T03:52:21.089Z,15.0
2022-09-12T04:02:21.277Z,14.8
2022-09-12T04:12:21.088Z,14.7
2022-09-12T04:27:21.096Z,15.0
2022-09-12T04:37:21.205Z,14.9
2022-09-12T04:42:21.126Z,14.8
2022-09-12T05:07:21.113Z,15.0
2022-09-12T05:22:21.122Z,14.9
2022-09-12T05:32:21.127Z,14.8
2022-09-12T05:37:21.128Z,14.9
2022-09-12T05:42:21.137Z,15.0
2022-09-12T05:47:21.141Z,15.1
2022-09-12T05:52:21.136Z,15.3
2022-09-12T05:57:21.133Z,15.4
2022-09-12T06:02:21.171Z,15.3
2022-09-12T06:07:21.141Z,15.6
2022-09-12T06:17:21.139Z,15.7
2022-09-12T06:22:21.138Z,16.1
2022-09-12T06:27:21.158Z,16.3
2022-09-12T06:32:21.152Z,16.2
2022-09-12T06:37:21.145Z,16.3
2022-09-12T06:42:21.139Z,16.4
2022-09-12T06:57:21.151Z,16.3
2022-09-12T07:02:21.229Z,16.2
2022-09-12T07:12:21.345Z,16.4
2022-09-12T07:17:21.159Z,16.7
2022-09-12T07:22:21.168Z,17.0
2022-09-12T07:27:21.206Z,17.2
2022-09-12T07:32:21.168Z,17.1
2022-09-12T07:37:21.159Z,17.2
2022-09-12T07:47:21.192Z,17.5
2022-09-12T07:52:21.178Z,17.9
2022-09-12T07:57:21.189Z,18.2
2022-09-12T08:12:21.179Z,18.1
2022-09-12T08:17:21.256Z,18.2
2022-09-12T08:22:21.192Z,18.7
2022-09-12T08:32:21.181Z,19.2
2022-09-12T08:37:21.195Z,19.6
2022-09-12T08:47:21.193Z,19.5
2022-09-12T08:52:21.187Z,20.1
2022-09-12T08:57:21.202Z,20.5
2022-09-12T09:07:22.488Z,21.1
2022-09-12T09:12:21.202Z,21.4
2022-09-12T09:17:21.205Z,21.5
2022-09-12T09:22:21.208Z,22.1
2022-09-12T09:27:39.372Z,22.0
2022-09-12T09:32:21.225Z,22.3
2022-09-12T09:37:21.206Z,22.7
2022-09-12T09:42:21.219Z,23.0
2022-09-12T09:47:21.228Z,23.5
2022-09-12T09:52:21.219Z,23.6
2022-09-12T09:57:21.229Z,24.3
2022-09-12T10:02:24.074Z,25.7
2022-09-12T10:07:21.230Z,26.9
2022-09-12T10:12:21.218Z,27.1
2022-09-12T10:17:21.236Z,26.6
2022-09-12T10:22:21.224Z,26.9
2022-09-12T10:27:21.248Z,27.5
2022-09-12T10:32:21.230Z,29.5
2022-09-12T10:37:21.234Z,30.2
2022-09-12T10:42:23.405Z,29.7
2022-09-12T10:47:21.276Z,30.0
2022-09-12T10:52:21.246Z,30.3
2022-09-12T10:57:21.251Z,30.7
2022-09-12T11:02:21.315Z,30.3
2022-09-12T11:07:21.266Z,29.9
2022-09-12T11:12:21.257Z,29.1
2022-09-12T11:17:21.255Z,28.8
2022-09-12T11:22:21.254Z,28.3
2022-09-12T11:27:21.259Z,28.4
2022-09-12T11:32:21.280Z,28.3
2022-09-12T11:37:21.277Z,28.6
2022-09-12T11:42:21.263Z,28.8
2022-09-12T11:47:21.263Z,29.5
2022-09-12T11:52:21.267Z,30.5
2022-09-12T11:57:21.279Z,31.0
2022-09-12T12:02:21.329Z,31.3
2022-09-12T12:07:21.269Z,32.1
2022-09-12T12:12:21.285Z,29.7
2022-09-12T12:17:21.279Z,30.0
2022-09-12T12:22:21.296Z,29.4
2022-09-12T12:27:21.292Z,28.8
2022-09-12T12:32:21.287Z,27.9
2022-09-12T12:37:21.285Z,29.1
2022-09-12T12:42:22.486Z,29.8
2022-09-12T12:52:21.311Z,29.5
2022-09-12T12:57:21.314Z,28.9
2022-09-12T13:02:21.389Z,28.2
2022-09-12T13:07:21.304Z,29.0
2022-09-12T13:12:22.447Z,29.2
2022-09-12T13:17:21.313Z,29.5
2022-09-12T13:22:21.295Z,29.1
2022-09-12T13:27:21.310Z,29.3
2022-09-12T13:37:21.307Z,29.9
2022-09-12T13:42:21.307Z,29.8
2022-09-12T13:47:21.317Z,30.1
2022-09-12T13:52:21.318Z,29.7
2022-09-12T13:57:21.317Z,28.9
2022-09-12T14:02:21.391Z,29.5
2022-09-12T14:12:21.327Z,29.4
2022-09-12T14:17:23.661Z,28.9
2022-09-12T14:27:21.338Z,28.3
2022-09-12T14:32:21.344Z,28.6
2022-09-12T14:37:21.323Z,29.0
2022-09-12T14:42:21.346Z,28.9
2022-09-12T14:47:21.332Z,29.0
2022-09-12T14:52:21.343Z,28.8
2022-09-12T15:02:21.356Z,28.6
2022-09-12T15:07:21.402Z,28.3
2022-09-12T15:12:21.353Z,27.8
2022-09-12T15:17:21.362Z,27.4
2022-09-12T15:22:21.350Z,27.3
2022-09-12T15:27:21.356Z,27.2
2022-09-12T15:32:21.377Z,27.1
2022-09-12T15:37:21.366Z,27.0
2022-09-12T15:42:21.360Z,26.8
2022-09-12T15:52:21.367Z,26.9
2022-09-12T16:02:21.433Z,26.8
2022-09-12T16:07:21.371Z,26.9
2022-09-12T16:12:21.379Z,26.6
2022-09-12T16:17:21.385Z,26.4
2022-09-12T16:22:21.392Z,26.1
2022-09-12T16:27:21.389Z,25.9
2022-09-12T16:32:21.379Z,25.8
2022-09-12T16:37:21.378Z,25.6
2022-09-12T16:42:21.391Z,25.5
2022-09-12T16:47:21.393Z,25.3
2022-09-12T16:52:22.725Z,25.1
2022-09-12T16:57:21.393Z,24.9
2022-09-12T17:02:21.474Z,24.8
2022-09-12T17:07:21.396Z,24.7
2022-09-12T17:12:21.415Z,24.5
2022-09-12T17:17:21.414Z,24.3
2022-09-12T17:22:21.412Z,24.2
2022-09-12T17:27:21.408Z,24.1
2022-09-12T17:32:21.449Z,23.9
2022-09-12T17:37:21.420Z,24.0
2022-09-12T17:52:21.409Z,23.9
2022-09-12T17:57:21.455Z,23.8
2022-09-12T18:02:21.470Z,23.6
2022-09-12T18:07:21.442Z,23.5
2022-09-12T18:17:21.443Z,23.2
2022-09-12T18:22:21.437Z,23.1
2022-09-12T18:27:21.448Z,22.7
2022-09-12T18:32:21.539Z,22.4
2022-09-12T18:47:21.446Z,22.1
2022-09-12T18:52:21.448Z,22.0
2022-09-12T19:02:21.445Z,21.8
2022-09-12T19:07:21.446Z,21.6
2022-09-12T19:12:21.455Z,21.5
2022-09-12T19:17:21.467Z,21.4
2022-09-12T19:27:21.469Z,21.3
2022-09-12T19:32:21.463Z,21.2
2022-09-12T19:37:21.461Z,21.0
2022-09-12T19:42:21.525Z,21.1
2022-09-12T19:47:21.460Z,21.0
2022-09-12T19:57:21.479Z,20.9
2022-09-12T20:02:21.545Z,20.7
2022-09-12T20:17:21.480Z,20.5
2022-09-12T20:22:21.501Z,20.6
2022-09-12T20:32:22.605Z,20.8
2022-09-12T20:42:21.490Z,20.9
2022-09-12T20:47:21.493Z,20.8
2022-09-12T20:52:21.499Z,20.9
2022-09-12T20:57:21.502Z,20.5
2022-09-12T21:02:21.638Z,20.2
2022-09-12T21:12:21.497Z,20.4
2022-09-12T21:17:21.506Z,20.1
2022-09-12T21:22:21.506Z,19.9
2022-09-12T21:27:21.514Z,19.8
2022-09-12T21:32:21.498Z,19.6
2022-09-12T21:42:21.528Z,19.7
2022-09-12T21:47:21.716Z,19.8
2022-09-12T21:52:21.518Z,20.0
2022-09-12T22:02:21.572Z,19.9
2022-09-12T22:07:21.528Z,19.8
2022-09-12T22:52:21.547Z,19.9
2022-09-12T23:17:21.556Z,19.8
2022-09-12T23:32:21.565Z,19.6
2022-09-12T23:37:21.555Z,19.7
2022-09-12T23:42:21.556Z,19.6
2022-09-12T23:57:21.575Z,19.5
